Time;durP1;ratioP1;P1;durP2;ratioP2;P2;SDS_P1;SDS_P2;PMS_P1;PMS_P2;Temp;Humidity;BMP_temperature;BMP_pressure;BME280_temperature;BME280_humidity;BME280_pressure;Samples;Min_cycle;Max_cycle;Signal;HPM_P1;HPM_P2
2021/09/15 00:07:15;;;;;;;13.55;10.15;;;;;;;19.08;87.40;100158.53;20751264;28;20096;-71
2021/09/15 00:17:18;;;;;;;11.32;9.57;;;;;;;19.12;86.64;100144.19;20750895;28;20104;-71
2021/09/15 00:27:20;;;;;;;14.88;9.60;;;;;;;19.04;86.86;100138.41;20750044;28;20057;-71
2021/09/15 00:37:21;;;;;;;11.65;9.80;;;;;;;19.06;86.89;100128.56;20748967;28;20491;-72
2021/09/15 00:47:23;;;;;;;13.82;9.77;;;;;;;19.08;87.00;100126.69;20748601;28;20104;-72
2021/09/15 00:57:25;;;;;;;13.80;10.95;;;;;;;19.07;87.43;100108.19;20746757;28;20046;-72
2021/09/15 01:07:27;;;;;;;13.57;10.55;;;;;;;19.00;87.41;100107.69;20747001;28;20096;-72
2021/09/15 01:17:30;;;;;;;11.73;10.03;;;;;;;19.05;87.43;100137.47;20727833;28;20413;-72
2021/09/15 01:27:32;;;;;;;11.55;9.52;;;;;;;19.08;87.11;100121.41;20744067;28;20045;-72
2021/09/15 01:37:34;;;;;;;13.70;9.55;;;;;;;19.19;87.26;100136.72;20744270;28;20046;-72
2021/09/15 01:47:37;;;;;;;15.82;10.35;;;;;;;19.39;87.54;100112.56;20744187;28;20045;-69
2021/09/15 01:57:38;;;;;;;14.70;11.02;;;;;;;19.30;89.59;100104.25;20743457;28;20049;-68
2021/09/15 02:07:40;;;;;;;15.68;9.70;;;;;;;19.18;91.78;100085.44;20742133;28;20626;-69
2021/09/15 02:17:43;;;;;;;12.27;10.27;;;;;;;19.19;91.50;100089.78;20741251;28;20057;-70
2021/09/15 02:27:45;;;;;;;16.10;10.40;;;;;;;19.17;91.99;100078.44;20740969;28;20045;-69
2021/09/15 02:37:47;;;;;;;15.07;10.88;;;;;;;19.16;92.46;100076.72;20739993;28;20105;-70
2021/09/15 02:47:48;;;;;;;15.25;11.20;;;;;;;19.17;92.84;100067.81;20739439;28;20049;-70
2021/09/15 02:57:50;;;;;;;14.95;11.80;;;;;;;19.25;91.89;100071.81;20739206;28;20100;-70
2021/09/15 03:07:52;;;;;;;16.35;11.25;;;;;;;19.05;93.24;100083.56;20736944;28;20702;-70
2021/09/15 03:17:54;;;;;;;13.40;10.90;;;;;;;19.10;93.45;100086.81;20735984;28;20054;-71
2021/09/15 03:27:56;;;;;;;13.57;11.35;;;;;;;19.11;93.17;100081.41;20737347;28;20054;-70
2021/09/15 03:37:57;;;;;;;17.05;13.07;;;;;;;19.09;92.93;100091.25;20736270;28;20054;-70
2021/09/15 03:47:59;;;;;;;15.88;12.38;;;;;;;19.03;93.24;100081.00;20749642;23;20046;-73
2021/09/15 03:58:01;;;;;;;14.90;12.18;;;;;;;19.07;93.44;100076.34;20736616;28;20045;-71
2021/09/15 04:08:03;;;;;;;18.35;13.30;;;;;;;19.06;93.21;100094.06;20735112;28;20046;-72
2021/09/15 04:18:04;;;;;;;16.48;13.82;;;;;;;18.98;93.13;100069.78;20735297;28;20050;-72
2021/09/15 04:38:27;;;;;;;17.55;13.48;;;;;;;19.01;92.93;100114.69;20750017;28;20588;-72
2021/09/15 04:48:29;;;;;;;19.58;14.07;;;;;;;18.99;92.81;100110.44;20748724;28;20045;-72
2021/09/15 04:58:30;;;;;;;16.45;12.15;;;;;;;18.92;93.33;100107.25;20747727;28;20700;-72
2021/09/15 05:08:32;;;;;;;15.23;11.77;;;;;;;18.89;93.86;100091.50;20747588;28;20458;-71
2021/09/15 05:18:34;;;;;;;18.20;13.02;;;;;;;18.92;93.56;100102.81;20746970;28;20050;-71
2021/09/15 05:28:36;;;;;;;17.25;13.02;;;;;;;18.81;93.98;100106.97;20746783;28;20049;-71
2021/09/15 05:38:38;;;;;;;14.65;10.23;;;;;;;18.77;93.93;100126.66;20744835;28;20042;-72
2021/09/15 05:48:40;;;;;;;13.15;8.68;;;;;;;18.70;93.71;100127.00;20743813;28;20045;-71
2021/09/15 05:58:41;;;;;;;11.07;8.20;;;;;;;18.80;93.87;100129.16;20744740;28;20050;-71
2021/09/15 06:08:43;;;;;;;11.18;7.35;;;;;;;18.89;94.05;100131.31;20762707;28;20486;-71
2021/09/15 06:18:45;;;;;;;11.38;7.95;;;;;;;19.00;94.09;100131.56;20761424;28;20093;-72
2021/09/15 06:28:47;;;;;;;13.15;8.02;;;;;;;19.00;93.72;100128.91;20741257;28;20116;-71
2021/09/15 06:38:49;;;;;;;11.90;8.50;;;;;;;19.08;93.45;100116.09;20740824;28;20419;-71
2021/09/15 06:48:51;;;;;;;12.38;9.27;;;;;;;19.21;93.17;100110.94;20722362;28;20073;-71
2021/09/15 06:58:53;;;;;;;13.27;8.90;;;;;;;19.34;92.85;100117.28;20739821;28;20045;-71
2021/09/15 07:08:55;;;;;;;15.73;9.57;;;;;;;19.49;92.01;100120.84;20758840;28;20042;-71
2021/09/15 07:18:57;;;;;;;16.67;9.90;;;;;;;19.38;92.67;100140.06;20780768;28;20041;-71
2021/09/15 07:28:59;;;;;;;14.27;9.63;;;;;;;19.40;92.77;100132.00;20820305;28;20469;-71
2021/09/15 07:39:03;;;;;;;14.10;8.93;;;;;;;19.48;92.66;100135.09;20792113;28;20097;-72
2021/09/15 07:49:06;;;;;;;15.77;9.40;;;;;;;19.73;92.75;100156.66;20737001;28;20058;-72
2021/09/15 07:59:08;;;;;;;13.20;9.10;;;;;;;19.79;91.99;100154.63;20739778;28;20608;-71
2021/09/15 08:09:09;;;;;;;13.88;9.88;;;;;;;19.80;91.55;100156.34;20752983;28;20486;-71
2021/09/15 08:19:11;;;;;;;13.90;9.35;;;;;;;19.67;92.28;100161.47;20829803;28;20422;-72
2021/09/15 08:29:13;;;;;;;15.40;9.25;;;;;;;19.68;92.81;100164.03;20834054;28;20049;-72
2021/09/15 08:39:16;;;;;;;11.20;7.55;;;;;;;19.56;92.92;100172.69;20831755;28;20037;-72
2021/09/15 08:49:19;;;;;;;9.27;5.55;;;;;;;19.73;92.52;100172.59;20830970;28;20049;-72
2021/09/15 08:59:21;;;;;;;8.93;4.70;;;;;;;19.80;91.77;100180.25;20831681;28;20053;-71
2021/09/15 09:09:26;;;;;;;7.50;5.25;;;;;;;19.86;92.04;100179.88;20812754;28;20407;-71
2021/09/15 09:19:29;;;;;;;11.07;5.75;;;;;;;20.14;91.22;100180.00;20732016;28;20050;-71
2021/09/15 09:29:34;;;;;;;10.38;5.65;;;;;;;20.56;89.28;100189.06;20748090;28;20732;-71
2021/09/15 09:39:47;;;;;;;14.20;5.85;;;;;;;20.93;88.33;100181.47;20746346;28;20054;-71
2021/09/15 09:50:11;;;;;;;11.00;6.15;;;;;;;21.36;86.83;100176.13;20744842;28;20054;-72
2021/09/15 10:00:14;;;;;;;;;;;;;;;21.79;84.56;100158.19;20744857;28;20052;-72
2021/09/15 10:10:18;;;;;;;8.88;4.72;;;;;;;21.86;85.31;100156.00;20744852;28;20441;-73
2021/09/15 10:20:30;;;;;;;;;;;;;;;21.69;84.81;100159.75;20742966;28;20458;-72
2021/09/15 10:30:53;;;;;;;7.78;4.22;;;;;;;21.39;85.96;100159.97;20742807;28;20379;-72
2021/09/15 10:40:54;;;;;;;6.55;3.78;;;;;;;21.44;86.09;100155.19;20731903;28;20053;-72
2021/09/15 10:50:56;;;;;;;6.82;3.85;;;;;;;21.59;84.24;100156.84;20770479;28;20045;-73
2021/09/15 11:01:01;;;;;;;9.60;4.30;;;;;;;22.05;82.26;100131.63;20746106;28;20042;-73
2021/09/15 11:11:09;;;;;;;7.10;3.75;;;;;;;22.46;79.97;100128.81;20740667;28;20129;-73
2021/09/15 11:21:14;;;;;;;8.45;3.42;;;;;;;22.23;78.59;100131.25;20739543;28;20054;-73
2021/09/15 11:31:16;;;;;;;9.52;4.03;;;;;;;22.65;79.49;100129.22;20738909;28;20109;-73
2021/09/15 11:41:18;;;;;;;8.13;4.68;;;;;;;22.61;77.71;100132.22;20738885;28;20492;-72
2021/09/15 11:51:23;;;;;;;7.35;3.22;;;;;;;22.58;77.43;100109.28;20738481;28;20054;-73
2021/09/15 12:01:29;;;;;;;5.50;3.10;;;;;;;22.83;75.20;100091.53;20737648;28;20050;-73
2021/09/15 12:11:33;;;;;;;7.28;3.25;;;;;;;22.49;75.56;100092.09;20734747;28;20077;-73
2021/09/15 12:21:41;;;;;;;7.07;3.30;;;;;;;22.82;75.95;100076.47;20818613;28;20056;-73
2021/09/15 12:31:51;;;;;;;7.72;3.85;;;;;;;22.90;74.70;100087.47;20818148;28;20414;-73
2021/09/15 12:41:58;;;;;;;6.75;3.47;;;;;;;22.47;75.49;100072.69;20818134;28;20045;-73
2021/09/15 12:52:11;;;;;;;7.05;3.67;;;;;;;22.44;75.56;100072.91;20826389;28;20104;-74
2021/09/15 13:02:24;;;;;;;7.93;3.40;;;;;;;22.47;76.48;100071.81;20814094;28;20061;-73
2021/09/15 13:12:26;;;;;;;7.43;3.30;;;;;;;22.63;72.88;100061.78;20809272;28;20046;-73
2021/09/15 13:22:28;;;;;;;7.07;3.63;;;;;;;22.58;73.63;100052.41;20734787;28;20050;-73
2021/09/15 13:32:30;;;;;;;6.53;3.60;;;;;;;22.64;75.04;100057.28;20747778;28;20108;-73
2021/09/15 13:42:33;;;;;;;7.95;4.28;;;;;;;22.30;74.61;100073.00;20747001;28;20046;-73
2021/09/15 13:52:35;;;;;;;6.00;3.42;;;;;;;22.25;74.64;100067.13;20746295;28;20385;-73
2021/09/15 14:02:38;;;;;;;7.18;3.55;;;;;;;22.38;73.00;100068.00;20744676;28;20126;-73
2021/09/15 14:12:41;;;;;;;6.45;3.13;;;;;;;22.51;73.58;100062.63;20768791;28;20115;-73
2021/09/15 14:22:43;;;;;;;6.57;3.50;;;;;;;22.52;72.87;100049.19;20825409;28;20045;-73
2021/09/15 14:32:46;;;;;;;5.70;3.03;;;;;;;22.67;73.41;100046.41;20824443;28;20049;-72
2021/09/15 14:42:47;;;;;;;7.20;3.67;;;;;;;22.65;72.60;100049.16;20823804;28;20049;-73
2021/09/15 14:52:49;;;;;;;9.20;3.95;;;;;;;22.68;73.65;100048.09;20823459;28;20053;-73
2021/09/15 15:02:51;;;;;;;8.55;4.13;;;;;;;22.47;71.93;100039.78;20823178;28;20568;-73
2021/09/15 15:12:52;;;;;;;8.20;3.90;;;;;;;22.58;73.55;100042.56;20800491;28;20049;-73
2021/09/15 15:22:54;;;;;;;7.55;3.80;;;;;;;22.46;72.89;100038.94;20742072;28;20042;-73
2021/09/15 15:32:56;;;;;;;7.60;4.40;;;;;;;22.33;73.98;100042.63;20739113;28;20081;-74
2021/09/15 15:42:58;;;;;;;9.30;4.72;;;;;;;22.03;74.30;100046.41;20739444;28;20054;-73
2021/09/15 15:53:00;;;;;;;7.13;4.13;;;;;;;22.00;74.34;100051.97;20738495;28;20061;-73
2021/09/15 16:03:02;;;;;;;9.75;4.32;;;;;;;21.88;73.88;100047.44;20738548;28;20053;-73
2021/09/15 16:13:04;;;;;;;8.13;4.10;;;;;;;21.80;72.95;100049.78;20765031;28;20482;-73
2021/09/15 16:23:06;;;;;;;7.53;4.40;;;;;;;21.61;74.38;100051.03;20808562;28;20049;-74
2021/09/15 16:33:08;;;;;;;7.40;4.20;;;;;;;21.45;73.42;100061.84;20834191;28;20496;-73
2021/09/15 16:43:11;;;;;;;7.63;3.70;;;;;;;21.30;75.65;100059.31;20815979;28;20103;-73
2021/09/15 16:53:13;;;;;;;7.47;3.85;;;;;;;21.23;74.90;100073.03;20833211;28;20046;-73
2021/09/15 17:03:15;;;;;;;6.82;4.38;;;;;;;21.17;74.99;100070.75;20832288;28;20049;-73
2021/09/15 17:13:16;;;;;;;6.32;3.95;;;;;;;20.96;74.97;100069.50;20802551;28;20046;-73
2021/09/15 17:23:18;;;;;;;8.82;4.35;;;;;;;20.71;77.37;100070.19;20748861;28;20399;-73
2021/09/15 17:33:20;;;;;;;11.07;4.53;;;;;;;20.47;77.03;100077.91;20729210;28;20097;-73
2021/09/15 17:43:23;;;;;;;7.15;3.90;;;;;;;20.31;77.77;100085.06;20747165;28;20053;-73
2021/09/15 17:53:24;;;;;;;10.15;3.83;;;;;;;20.16;78.74;100093.00;20745530;28;20100;-73
2021/09/15 18:03:26;;;;;;;6.78;4.05;;;;;;;20.06;79.26;100110.47;20745180;28;20469;-74
2021/09/15 18:13:28;;;;;;;6.50;4.63;;;;;;;19.90;80.37;100112.34;20775443;28;20045;-74
2021/09/15 18:23:29;;;;;;;10.27;4.93;;;;;;;19.83;80.56;100129.56;20825816;28;20107;-73
2021/09/15 18:33:31;;;;;;;9.35;5.35;;;;;;;19.79;81.39;100128.91;20807151;28;20538;-74
2021/09/15 18:43:33;;;;;;;7.20;4.13;;;;;;;19.73;81.15;100140.72;20823924;28;20475;-74
2021/09/15 18:53:35;;;;;;;7.70;4.32;;;;;;;19.65;81.32;100155.41;20823952;28;20103;-74
2021/09/15 19:03:37;;;;;;;6.53;4.43;;;;;;;19.59;81.69;100156.56;20822895;28;20045;-74
2021/09/15 19:13:43;;;;;;;8.85;5.07;;;;;;;19.51;82.56;100166.78;20789444;28;20046;-74
2021/09/15 19:23:46;;;;;;;8.80;5.15;;;;;;;19.35;83.14;100169.41;20723935;28;20440;-74
2021/09/15 19:33:49;;;;;;;11.68;5.75;;;;;;;19.21;83.78;100167.56;20744165;23;20124;-72
2021/09/15 19:43:51;;;;;;;7.05;4.68;;;;;;;19.02;85.16;100185.44;20738773;28;20057;-71
2021/09/15 19:53:52;;;;;;;9.93;5.53;;;;;;;18.91;86.56;100203.69;20719829;28;20061;-71
2021/09/15 20:03:54;;;;;;;9.05;6.10;;;;;;;18.85;87.18;100188.13;20753885;28;20049;-71
2021/09/15 20:13:56;;;;;;;8.40;5.38;;;;;;;18.82;87.37;100193.56;20770441;28;20111;-71
2021/09/15 20:24:00;;;;;;;8.75;5.72;;;;;;;18.71;87.85;100196.81;20834608;28;20412;-71
2021/09/15 20:34:02;;;;;;;7.97;6.27;;;;;;;18.59;88.28;100198.28;20833408;28;20052;-71
2021/09/15 20:44:04;;;;;;;7.50;5.57;;;;;;;18.46;89.36;100202.50;20832819;28;20057;-71
2021/09/15 20:54:06;;;;;;;12.13;6.10;;;;;;;18.38;89.50;100204.66;20832572;28;20050;-71
2021/09/15 21:04:09;;;;;;;9.38;5.75;;;;;;;18.37;89.42;100202.97;20830832;28;20186;-71
2021/09/15 21:14:11;;;;;;;9.00;5.90;;;;;;;18.45;89.49;100200.78;20793835;28;20522;-72
2021/09/15 21:24:13;;;;;;;8.35;5.60;;;;;;;18.53;88.97;100195.06;20748315;28;20188;-72
2021/09/15 21:34:15;;;;;;;8.25;5.10;;;;;;;18.55;88.69;100203.81;20746547;28;20096;-72
2021/09/15 21:44:17;;;;;;;8.18;4.68;;;;;;;18.44;88.80;100212.31;20746914;28;20500;-72
2021/09/15 21:54:19;;;;;;;7.53;4.60;;;;;;;18.56;89.16;100206.38;20746960;28;20068;-71
2021/09/15 22:04:20;;;;;;;9.07;4.90;;;;;;;18.54;87.86;100200.31;20745236;28;20050;-71
2021/09/15 22:14:22;;;;;;;7.97;4.25;;;;;;;18.57;87.99;100194.84;20743402;28;20180;-71
2021/09/15 22:24:24;;;;;;;11.15;4.32;;;;;;;18.49;88.72;100191.72;20742478;28;20108;-71
2021/09/15 22:34:25;;;;;;;7.20;4.63;;;;;;;18.53;88.20;100197.72;20741168;28;20046;-71
2021/09/15 22:44:27;;;;;;;9.70;5.10;;;;;;;18.52;88.48;100199.53;20740958;28;20551;-71
2021/09/15 22:54:30;;;;;;;11.60;5.20;;;;;;;18.58;89.05;100204.50;20739639;28;20046;-68
2021/09/15 23:04:32;;;;;;;8.68;3.97;;;;;;;18.27;92.53;100213.19;20738734;28;20050;-69
2021/09/15 23:14:34;;;;;;;7.13;3.97;;;;;;;18.24;92.63;100207.16;20739649;28;20062;-68
2021/09/15 23:24:36;;;;;;;6.82;4.20;;;;;;;18.18;93.23;100214.50;20738560;28;20532;-69
2021/09/15 23:34:38;;;;;;;8.55;4.78;;;;;;;18.25;93.35;100212.38;20736851;28;20492;-70
2021/09/15 23:44:39;;;;;;;8.88;5.47;;;;;;;18.28;93.02;100204.28;20737388;28;20145;-70
2021/09/15 23:54:41;;;;;;;10.15;5.20;;;;;;;18.30;93.23;100205.09;20736484;28;20085;-69
